createdAt,value
2018-11-30T00:00:11.994Z,1003.69
2018-11-30T00:00:38.096Z,1003.7
2018-11-30T00:01:04.201Z,1003.73
2018-11-30T00:01:30.313Z,1003.71
2018-11-30T00:01:56.445Z,1003.69
2018-11-30T00:02:22.557Z,1003.75
2018-11-30T00:02:48.659Z,1003.73
2018-11-30T00:03:14.769Z,1003.77
2018-11-30T00:03:40.897Z,1003.77
2018-11-30T00:04:07.005Z,1003.72
2018-11-30T00:04:33.114Z,1003.74
2018-11-30T00:04:59.254Z,1003.7
2018-11-30T00:05:25.351Z,1003.72
2018-11-30T00:05:51.460Z,1003.77
2018-11-30T00:06:17.597Z,1003.69
2018-11-30T00:06:43.724Z,1003.73
2018-11-30T00:07:09.835Z,1003.71
2018-11-30T00:07:35.972Z,1003.69
2018-11-30T00:08:02.079Z,1003.73
2018-11-30T00:08:28.187Z,1003.72
2018-11-30T00:08:54.289Z,1003.75
2018-11-30T00:09:21.385Z,1003.7
2018-11-30T00:09:47.498Z,1003.71
2018-11-30T00:10:13.593Z,1003.67
2018-11-30T00:10:39.704Z,1003.7
2018-11-30T00:11:05.834Z,1003.72
2018-11-30T00:11:31.939Z,1003.69
2018-11-30T00:11:58.045Z,1003.77
2018-11-30T00:12:24.151Z,1003.68
2018-11-30T00:12:50.285Z,1003.65
2018-11-30T00:13:16.392Z,1003.64
2018-11-30T00:13:42.503Z,1003.7
2018-11-30T00:14:08.618Z,1003.67
2018-11-30T00:14:34.718Z,1003.66
2018-11-30T00:15:00.837Z,1003.69
2018-11-30T00:15:27.022Z,1003.66
2018-11-30T00:15:53.126Z,1003.63
2018-11-30T00:16:19.234Z,1003.64
2018-11-30T00:16:45.344Z,1003.62
2018-11-30T00:17:11.450Z,1003.6
2018-11-30T00:17:37.553Z,1003.63
2018-11-30T00:18:03.871Z,1003.63
2018-11-30T00:18:29.972Z,1003.66
2018-11-30T00:18:56.076Z,1003.68
2018-11-30T00:19:22.182Z,1003.65
2018-11-30T00:19:48.287Z,1003.63
2018-11-30T00:20:14.407Z,1003.63
2018-11-30T00:20:40.501Z,1003.62
2018-11-30T00:21:06.603Z,1003.69
2018-11-30T00:21:32.735Z,1003.64
2018-11-30T00:21:58.841Z,1003.65
2018-11-30T00:22:24.943Z,1003.63
2018-11-30T00:22:51.085Z,1003.66
2018-11-30T00:23:17.190Z,1003.6
2018-11-30T00:23:43.298Z,1003.63
2018-11-30T00:24:09.407Z,1003.64
2018-11-30T00:24:35.514Z,1003.61
2018-11-30T00:25:01.616Z,1003.63
2018-11-30T00:25:27.713Z,1003.67
2018-11-30T00:25:53.817Z,1003.64
2018-11-30T00:26:19.925Z,1003.67
2018-11-30T00:26:46.032Z,1003.64
2018-11-30T00:27:12.170Z,1003.7
2018-11-30T00:27:38.302Z,1003.71
2018-11-30T00:28:04.403Z,1003.72
2018-11-30T00:28:30.514Z,1003.7
2018-11-30T00:28:56.623Z,1003.72
2018-11-30T00:29:22.803Z,1003.75
2018-11-30T00:29:48.868Z,1003.7
2018-11-30T00:30:14.973Z,1003.74
2018-11-30T00:30:41.084Z,1003.72
2018-11-30T00:31:07.217Z,1003.7
2018-11-30T00:31:33.347Z,1003.69
2018-11-30T00:31:59.457Z,1003.64
2018-11-30T00:32:25.591Z,1003.63
2018-11-30T00:32:51.696Z,1003.64
2018-11-30T00:33:17.825Z,1003.65
2018-11-30T00:33:43.933Z,1003.67
2018-11-30T00:34:10.047Z,1003.63
2018-11-30T00:34:36.145Z,1003.66
2018-11-30T00:35:02.245Z,1003.66
2018-11-30T00:35:28.363Z,1003.67
2018-11-30T00:35:54.466Z,1003.67
2018-11-30T00:36:20.576Z,1003.68
2018-11-30T00:36:46.677Z,1003.66
2018-11-30T00:37:12.778Z,1003.69
2018-11-30T00:37:38.881Z,1003.67
2018-11-30T00:38:05.014Z,1003.64
2018-11-30T00:38:31.124Z,1003.66
2018-11-30T00:38:57.212Z,1003.64
2018-11-30T00:39:23.324Z,1003.6
2018-11-30T00:39:49.427Z,1003.64
2018-11-30T00:40:15.559Z,1003.61
2018-11-30T00:40:41.670Z,1003.63
2018-11-30T00:41:07.770Z,1003.61
2018-11-30T00:41:33.886Z,1003.61
2018-11-30T00:41:59.991Z,1003.6
2018-11-30T00:42:26.095Z,1003.57
2018-11-30T00:42:52.231Z,1003.59
2018-11-30T00:43:18.365Z,1003.57
2018-11-30T00:43:44.468Z,1003.58
2018-11-30T00:44:10.602Z,1003.57
2018-11-30T00:44:36.711Z,1003.56
2018-11-30T00:45:02.817Z,1003.53
2018-11-30T00:45:28.947Z,1003.58
2018-11-30T00:45:55.056Z,1003.51
2018-11-30T00:46:21.168Z,1003.58
2018-11-30T00:46:47.272Z,1003.61
2018-11-30T00:47:13.385Z,1003.56
2018-11-30T00:47:39.489Z,1003.57
2018-11-30T00:48:05.626Z,1003.56
2018-11-30T00:48:31.738Z,1003.54
2018-11-30T00:48:57.843Z,1003.51
2018-11-30T00:49:23.948Z,1003.53
2018-11-30T00:49:50.055Z,1003.57
2018-11-30T00:50:16.187Z,1003.57
2018-11-30T00:50:42.296Z,1003.56
2018-11-30T00:51:08.400Z,1003.56
2018-11-30T00:51:34.537Z,1003.57
2018-11-30T00:52:00.643Z,1003.58
2018-11-30T00:52:26.750Z,1003.57
2018-11-30T00:52:52.883Z,1003.52
2018-11-30T00:53:18.987Z,1003.51
2018-11-30T00:53:45.125Z,1003.49
2018-11-30T00:54:11.234Z,1003.49
2018-11-30T00:54:37.342Z,1003.47
2018-11-30T00:55:03.454Z,1003.46
2018-11-30T00:55:29.557Z,1003.5
2018-11-30T00:55:55.657Z,1003.47
2018-11-30T00:56:21.763Z,1003.45
2018-11-30T00:56:47.868Z,1003.51
2018-11-30T00:57:13.972Z,1003.51
2018-11-30T00:57:40.107Z,1003.52
2018-11-30T00:58:06.214Z,1003.53
2018-11-30T00:58:32.339Z,1003.47
2018-11-30T00:58:58.448Z,1003.48
2018-11-30T00:59:24.555Z,1003.51
2018-11-30T00:59:50.682Z,1003.53
2018-11-30T01:00:16.789Z,1003.49
2018-11-30T01:00:42.890Z,1003.5
2018-11-30T01:01:09.006Z,1003.54
2018-11-30T01:01:35.106Z,1003.52
2018-11-30T01:02:01.216Z,1003.57
2018-11-30T01:02:27.323Z,1003.55
2018-11-30T01:02:53.434Z,1003.56
2018-11-30T01:03:19.565Z,1003.57
2018-11-30T01:03:45.677Z,1003.58
2018-11-30T01:04:11.811Z,1003.6
2018-11-30T01:04:37.917Z,1003.58
2018-11-30T01:05:04.025Z,1003.53
2018-11-30T01:05:30.154Z,1003.6
2018-11-30T01:05:57.156Z,1003.58
2018-11-30T01:06:23.256Z,1003.56
2018-11-30T01:06:49.363Z,1003.58
2018-11-30T01:07:15.471Z,1003.53
2018-11-30T01:07:41.578Z,1003.55
2018-11-30T01:08:07.725Z,1003.53
2018-11-30T01:08:33.833Z,1003.54
2018-11-30T01:08:59.939Z,1003.55
2018-11-30T01:09:26.074Z,1003.57
2018-11-30T01:09:52.178Z,1003.56
2018-11-30T01:10:18.287Z,1003.56
2018-11-30T01:10:44.392Z,1003.54
2018-11-30T01:11:10.501Z,1003.51
2018-11-30T01:11:36.604Z,1003.52
2018-11-30T01:12:02.712Z,1003.5
2018-11-30T01:12:28.852Z,1003.54
2018-11-30T01:12:54.957Z,1003.5
2018-11-30T01:13:21.057Z,1003.55
2018-11-30T01:13:47.166Z,1003.57
2018-11-30T01:14:13.272Z,1003.56
2018-11-30T01:14:39.386Z,1003.56
2018-11-30T01:15:05.491Z,1003.59
2018-11-30T01:15:31.599Z,1003.57
2018-11-30T01:15:57.706Z,1003.55
2018-11-30T01:16:23.811Z,1003.52
2018-11-30T01:16:49.915Z,1003.54
2018-11-30T01:17:16.020Z,1003.6
2018-11-30T01:17:42.161Z,1003.61
2018-11-30T01:18:08.300Z,1003.59
2018-11-30T01:18:34.403Z,1003.56
2018-11-30T01:19:00.511Z,1003.59
2018-11-30T01:19:26.618Z,1003.61
2018-11-30T01:19:52.727Z,1003.62
2018-11-30T01:20:18.831Z,1003.64
2018-11-30T01:20:44.939Z,1003.62
2018-11-30T01:21:11.085Z,1003.64
2018-11-30T01:21:38.130Z,1003.64
2018-11-30T01:22:04.237Z,1003.68
2018-11-30T01:22:30.341Z,1003.67
2018-11-30T01:22:56.496Z,1003.63
2018-11-30T01:23:22.606Z,1003.63
2018-11-30T01:23:48.715Z,1003.65
2018-11-30T01:24:14.817Z,1003.64
2018-11-30T01:24:40.953Z,1003.57
2018-11-30T01:25:07.057Z,1003.57
2018-11-30T01:25:33.191Z,1003.6
2018-11-30T01:25:59.301Z,1003.57
2018-11-30T01:26:25.410Z,1003.6
2018-11-30T01:26:51.747Z,1003.57
2018-11-30T01:27:17.852Z,1003.55
2018-11-30T01:27:43.986Z,1003.57
2018-11-30T01:28:10.090Z,1003.56
2018-11-30T01:28:36.202Z,1003.54
2018-11-30T01:29:02.340Z,1003.56
2018-11-30T01:29:28.444Z,1003.54
2018-11-30T01:29:54.551Z,1003.6
2018-11-30T01:30:20.656Z,1003.56
2018-11-30T01:30:46.767Z,1003.55
2018-11-30T01:31:12.894Z,1003.55
2018-11-30T01:31:39.005Z,1003.59
2018-11-30T01:32:05.109Z,1003.55
2018-11-30T01:32:31.223Z,1003.59
2018-11-30T01:32:57.331Z,1003.63
2018-11-30T01:33:23.436Z,1003.61
2018-11-30T01:33:49.547Z,1003.6
2018-11-30T01:34:15.656Z,1003.64
2018-11-30T01:34:41.759Z,1003.65
2018-11-30T01:35:07.863Z,1003.66
2018-11-30T01:35:33.975Z,1003.61
2018-11-30T01:36:00.078Z,1003.63
2018-11-30T01:36:26.189Z,1003.56
2018-11-30T01:36:52.300Z,1003.64
2018-11-30T01:37:18.408Z,1003.63
2018-11-30T01:37:44.514Z,1003.63
2018-11-30T01:38:10.622Z,1003.61
2018-11-30T01:38:36.728Z,1003.64
2018-11-30T01:39:02.835Z,1003.62
2018-11-30T01:39:28.957Z,1003.67
2018-11-30T01:39:55.116Z,1003.6
2018-11-30T01:40:21.249Z,1003.64
2018-11-30T01:40:47.353Z,1003.63
2018-11-30T01:41:13.490Z,1003.61
2018-11-30T01:41:39.598Z,1003.66
2018-11-30T01:42:05.715Z,1003.68
2018-11-30T01:42:31.816Z,1003.68
2018-11-30T01:42:57.923Z,1003.6
2018-11-30T01:43:24.028Z,1003.66
2018-11-30T01:43:50.124Z,1003.65
2018-11-30T01:44:16.234Z,1003.66
2018-11-30T01:44:42.343Z,1003.68
2018-11-30T01:45:08.449Z,1003.68
2018-11-30T01:45:34.555Z,1003.65
2018-11-30T01:46:00.661Z,1003.67
2018-11-30T01:46:26.773Z,1003.68
2018-11-30T01:46:52.880Z,1003.7
2018-11-30T01:47:18.986Z,1003.7
2018-11-30T01:47:45.099Z,1003.67
2018-11-30T01:48:11.224Z,1003.66
2018-11-30T01:48:37.336Z,1003.67
2018-11-30T01:49:03.437Z,1003.65
2018-11-30T01:49:29.547Z,1003.66
2018-11-30T01:49:55.653Z,1003.64
2018-11-30T01:50:21.762Z,1003.62
2018-11-30T01:50:47.870Z,1003.63
2018-11-30T01:51:14.494Z,1003.63
2018-11-30T01:51:40.594Z,1003.63
2018-11-30T01:52:06.695Z,1003.63
2018-11-30T01:52:32.800Z,1003.65
2018-11-30T01:52:58.909Z,1003.64
2018-11-30T01:53:25.008Z,1003.65
2018-11-30T01:53:57.379Z,1003.61
2018-11-30T01:54:23.485Z,1003.6
2018-11-30T01:54:49.596Z,1003.6
2018-11-30T01:55:15.696Z,1003.59
2018-11-30T01:55:41.836Z,1003.53
2018-11-30T01:56:07.950Z,1003.55
2018-11-30T01:56:34.079Z,1003.55
2018-11-30T01:57:00.181Z,1003.56
2018-11-30T01:57:26.275Z,1003.57
2018-11-30T01:57:52.384Z,1003.56
2018-11-30T01:58:18.477Z,1003.53
2018-11-30T01:58:44.572Z,1003.54
2018-11-30T01:59:10.678Z,1003.53
2018-11-30T01:59:36.762Z,1003.5
2018-11-30T02:00:02.873Z,1003.55
2018-11-30T02:00:28.972Z,1003.51
2018-11-30T02:00:55.062Z,1003.5
2018-11-30T02:01:21.159Z,1003.52
2018-11-30T02:01:47.249Z,1003.6
2018-11-30T02:02:13.346Z,1003.52
2018-11-30T02:02:39.432Z,1003.56
2018-11-30T02:03:05.524Z,1003.57
2018-11-30T02:03:31.671Z,1003.6
2018-11-30T02:03:57.761Z,1003.58
2018-11-30T02:04:23.852Z,1003.59
2018-11-30T02:04:49.973Z,1003.63
2018-11-30T02:05:16.115Z,1003.61
2018-11-30T02:05:42.206Z,1003.56
2018-11-30T02:06:08.291Z,1003.57
2018-11-30T02:06:34.402Z,1003.63
2018-11-30T02:07:00.504Z,1003.68
2018-11-30T02:07:26.597Z,1003.63
2018-11-30T02:07:52.692Z,1003.62
2018-11-30T02:08:18.785Z,1003.61
2018-11-30T02:08:44.871Z,1003.68
2018-11-30T02:09:10.965Z,1003.63
2018-11-30T02:09:37.058Z,1003.61
2018-11-30T02:10:03.148Z,1003.6
2018-11-30T02:10:29.234Z,1003.61
2018-11-30T02:10:55.332Z,1003.57
2018-11-30T02:11:21.426Z,1003.6
2018-11-30T02:11:47.527Z,1003.64
2018-11-30T02:12:13.616Z,1003.62
2018-11-30T02:12:39.705Z,1003.61
2018-11-30T02:13:05.796Z,1003.59
2018-11-30T02:13:31.896Z,1003.6
2018-11-30T02:13:57.983Z,1003.59
2018-11-30T02:14:24.076Z,1003.57
2018-11-30T02:14:50.170Z,1003.58
2018-11-30T02:15:16.260Z,1003.53
2018-11-30T02:15:42.353Z,1003.56
2018-11-30T02:16:08.447Z,1003.54
2018-11-30T02:16:34.546Z,1003.52
2018-11-30T02:17:00.633Z,1003.55
2018-11-30T02:17:26.752Z,1003.54
2018-11-30T02:17:52.865Z,1003.55
2018-11-30T02:18:18.957Z,1003.57
2018-11-30T02:18:45.059Z,1003.54
2018-11-30T02:19:11.149Z,1003.55
2018-11-30T02:19:37.235Z,1003.61
2018-11-30T02:20:03.346Z,1003.58
2018-11-30T02:20:29.448Z,1003.61
2018-11-30T02:20:55.561Z,1003.59
2018-11-30T02:21:21.655Z,1003.59
2018-11-30T02:21:47.747Z,1003.65
2018-11-30T02:22:13.837Z,1003.62
2018-11-30T02:22:39.937Z,1003.64
2018-11-30T02:23:06.081Z,1003.65
2018-11-30T02:23:32.104Z,1003.64
2018-11-30T02:23:58.196Z,1003.67
2018-11-30T02:24:24.288Z,1003.66
2018-11-30T02:24:50.402Z,1003.64
2018-11-30T02:25:16.492Z,1003.64
2018-11-30T02:25:42.588Z,1003.66
2018-11-30T02:26:08.681Z,1003.68
2018-11-30T02:26:34.799Z,1003.66
2018-11-30T02:27:00.933Z,1003.66
2018-11-30T02:27:26.984Z,1003.69
2018-11-30T02:27:53.105Z,1003.68
2018-11-30T02:28:19.191Z,1003.7
2018-11-30T02:28:45.314Z,1003.66
2018-11-30T02:29:11.414Z,1003.67
2018-11-30T02:29:37.502Z,1003.64
2018-11-30T02:30:03.594Z,1003.65
2018-11-30T02:30:29.708Z,1003.69
2018-11-30T02:30:55.812Z,1003.7
2018-11-30T02:31:21.957Z,1003.68
2018-11-30T02:31:48.048Z,1003.71
2018-11-30T02:32:14.165Z,1003.66
2018-11-30T02:32:40.262Z,1003.69
2018-11-30T02:33:06.358Z,1003.72
2018-11-30T02:33:32.473Z,1003.73
2018-11-30T02:33:58.593Z,1003.74
2018-11-30T02:34:24.713Z,1003.73
2018-11-30T02:34:50.823Z,1003.76
2018-11-30T02:35:16.919Z,1003.73
2018-11-30T02:35:43.051Z,1003.69
2018-11-30T02:36:09.185Z,1003.72
2018-11-30T02:36:35.277Z,1003.71
2018-11-30T02:37:01.394Z,1003.72
2018-11-30T02:37:27.516Z,1003.77
2018-11-30T02:37:53.656Z,1003.76
2018-11-30T02:38:19.759Z,1003.75
2018-11-30T02:38:45.882Z,1003.68
2018-11-30T02:39:11.974Z,1003.73
2018-11-30T02:39:38.067Z,1003.75
2018-11-30T02:40:04.161Z,1003.74
2018-11-30T02:40:30.279Z,1003.74
2018-11-30T02:40:56.397Z,1003.71
2018-11-30T02:41:22.486Z,1003.72
2018-11-30T02:41:48.582Z,1003.72
2018-11-30T02:42:14.694Z,1003.71
2018-11-30T02:42:40.787Z,1003.73
2018-11-30T02:43:06.886Z,1003.74
2018-11-30T02:43:32.976Z,1003.72
2018-11-30T02:43:59.069Z,1003.69
2018-11-30T02:44:25.179Z,1003.66
2018-11-30T02:44:51.282Z,1003.63
2018-11-30T02:45:17.373Z,1003.57
2018-11-30T02:45:43.456Z,1003.59
2018-11-30T02:46:09.574Z,1003.57
2018-11-30T02:46:35.667Z,1003.52
2018-11-30T02:47:01.783Z,1003.56
2018-11-30T02:47:27.878Z,1003.56
2018-11-30T02:47:53.967Z,1003.51
2018-11-30T02:48:20.058Z,1003.59
2018-11-30T02:48:46.209Z,1003.54
2018-11-30T02:49:12.299Z,1003.55
2018-11-30T02:49:38.415Z,1003.53
2018-11-30T02:50:04.535Z,1003.55
2018-11-30T02:50:30.640Z,1003.5
2018-11-30T02:50:56.761Z,1003.53
2018-11-30T02:51:22.902Z,1003.56
2018-11-30T02:51:49.003Z,1003.52
2018-11-30T02:52:15.113Z,1003.51
2018-11-30T02:52:41.205Z,1003.53
2018-11-30T02:53:07.326Z,1003.53
2018-11-30T02:53:33.452Z,1003.54
2018-11-30T02:53:59.538Z,1003.55
2018-11-30T02:54:25.658Z,1003.54
2018-11-30T02:54:51.754Z,1003.53
2018-11-30T02:55:17.850Z,1003.52
2018-11-30T02:55:43.984Z,1003.49
2018-11-30T02:56:10.098Z,1003.47
2018-11-30T02:56:36.201Z,1003.51
2018-11-30T02:57:02.290Z,1003.48
2018-11-30T02:57:28.408Z,1003.51
2018-11-30T02:57:54.561Z,1003.52
2018-11-30T02:58:20.646Z,1003.52
2018-11-30T02:58:46.749Z,1003.49
2018-11-30T02:59:12.858Z,1003.48
2018-11-30T02:59:38.951Z,1003.5
2018-11-30T03:00:05.052Z,1003.49
2018-11-30T03:00:31.191Z,1003.51
2018-11-30T03:00:57.280Z,1003.49
2018-11-30T03:01:23.402Z,1003.48
2018-11-30T03:01:49.496Z,1003.48
2018-11-30T03:02:15.597Z,1003.47
2018-11-30T03:02:41.683Z,1003.44
2018-11-30T03:03:07.828Z,1003.5
2018-11-30T03:03:33.942Z,1003.45
2018-11-30T03:04:00.046Z,1003.52
2018-11-30T03:04:26.179Z,1003.47
2018-11-30T03:04:52.273Z,1003.51
2018-11-30T03:05:18.405Z,1003.51
2018-11-30T03:05:44.511Z,1003.5
2018-11-30T03:06:10.605Z,1003.53
2018-11-30T03:06:36.738Z,1003.46
2018-11-30T03:07:02.857Z,1003.49
2018-11-30T03:07:28.946Z,1003.5
2018-11-30T03:07:55.066Z,1003.52
2018-11-30T03:08:21.165Z,1003.5
2018-11-30T03:08:47.253Z,1003.47
2018-11-30T03:09:13.381Z,1003.55
2018-11-30T03:09:39.471Z,1003.48
2018-11-30T03:10:05.566Z,1003.51
2018-11-30T03:10:31.650Z,1003.54
2018-11-30T03:10:57.740Z,1003.54
2018-11-30T03:11:23.861Z,1003.59
2018-11-30T03:11:49.981Z,1003.52
2018-11-30T03:12:16.077Z,1003.52
2018-11-30T03:12:42.223Z,1003.5
2018-11-30T03:13:08.332Z,1003.52
2018-11-30T03:13:34.445Z,1003.5
2018-11-30T03:14:00.588Z,1003.55
2018-11-30T03:14:26.686Z,1003.5
2018-11-30T03:14:52.776Z,1003.52
2018-11-30T03:15:18.861Z,1003.51
2018-11-30T03:15:44.949Z,1003.47
2018-11-30T03:16:11.085Z,1003.48
2018-11-30T03:16:37.175Z,1003.43
2018-11-30T03:17:03.259Z,1003.41
2018-11-30T03:17:29.376Z,1003.43
2018-11-30T03:17:55.517Z,1003.38
2018-11-30T03:18:21.628Z,1003.38
2018-11-30T03:18:47.750Z,1003.4
2018-11-30T03:19:13.841Z,1003.43
2018-11-30T03:19:39.931Z,1003.45
2018-11-30T03:20:06.036Z,1003.5
2018-11-30T03:20:32.133Z,1003.48
2018-11-30T03:20:58.278Z,1003.47
2018-11-30T03:21:24.400Z,1003.47
2018-11-30T03:21:50.510Z,1003.48
2018-11-30T03:22:16.604Z,1003.48
2018-11-30T03:22:42.722Z,1003.47
2018-11-30T03:23:08.842Z,1003.5
2018-11-30T03:23:34.963Z,1003.49
2018-11-30T03:24:01.055Z,1003.48
2018-11-30T03:24:27.149Z,1003.5
2018-11-30T03:24:53.243Z,1003.48
2018-11-30T03:25:19.324Z,1003.42
2018-11-30T03:25:45.468Z,1003.44
2018-11-30T03:26:11.567Z,1003.47
2018-11-30T03:26:37.670Z,1003.46
2018-11-30T03:27:03.840Z,1003.49
2018-11-30T03:27:29.947Z,1003.52
2018-11-30T03:27:56.053Z,1003.51
2018-11-30T03:28:22.189Z,1003.5
2018-11-30T03:28:48.295Z,1003.47
2018-11-30T03:29:14.433Z,1003.47
2018-11-30T03:29:40.534Z,1003.49
2018-11-30T03:30:06.669Z,1003.49
2018-11-30T03:30:32.839Z,1003.47
2018-11-30T03:30:59.058Z,1003.47
2018-11-30T03:31:25.215Z,1003.48
2018-11-30T03:31:51.354Z,1003.48
2018-11-30T03:32:17.506Z,1003.52
2018-11-30T03:32:43.722Z,1003.5
2018-11-30T03:33:09.912Z,1003.51
2018-11-30T03:33:36.180Z,1003.47
2018-11-30T03:34:02.363Z,1003.44
2018-11-30T03:34:28.496Z,1003.46
2018-11-30T03:34:54.629Z,1003.42
2018-11-30T03:35:20.762Z,1003.42
2018-11-30T03:35:46.873Z,1003.44
2018-11-30T03:36:12.986Z,1003.42
2018-11-30T03:36:39.090Z,1003.42
2018-11-30T03:37:05.189Z,1003.41
2018-11-30T03:37:31.299Z,1003.45
2018-11-30T03:37:57.406Z,1003.46
2018-11-30T03:38:23.512Z,1003.48
2018-11-30T03:38:49.620Z,1003.48
2018-11-30T03:39:15.753Z,1003.45
2018-11-30T03:39:41.915Z,1003.46
2018-11-30T03:40:08.108Z,1003.47
2018-11-30T03:40:34.236Z,1003.48
2018-11-30T03:41:00.347Z,1003.48
2018-11-30T03:41:26.448Z,1003.46
2018-11-30T03:41:52.555Z,1003.49
2018-11-30T03:42:18.666Z,1003.5
2018-11-30T03:42:44.770Z,1003.52
2018-11-30T03:43:10.883Z,1003.51
2018-11-30T03:43:36.986Z,1003.44
2018-11-30T03:44:03.197Z,1003.44
2018-11-30T03:44:29.255Z,1003.45
2018-11-30T03:44:55.380Z,1003.44
2018-11-30T03:45:21.493Z,1003.42
2018-11-30T03:45:47.607Z,1003.42
2018-11-30T03:46:13.721Z,1003.45
2018-11-30T03:46:39.885Z,1003.44
2018-11-30T03:47:05.985Z,1003.49
2018-11-30T03:47:32.122Z,1003.48
2018-11-30T03:47:58.233Z,1003.47
2018-11-30T03:48:24.330Z,1003.51
2018-11-30T03:48:50.476Z,1003.51
2018-11-30T03:49:16.593Z,1003.51
2018-11-30T03:49:42.727Z,1003.49
2018-11-30T03:50:08.859Z,1003.49
2018-11-30T03:50:34.991Z,1003.47
2018-11-30T03:51:01.096Z,1003.54
2018-11-30T03:51:27.230Z,1003.49
2018-11-30T03:51:53.343Z,1003.49
2018-11-30T03:52:19.499Z,1003.5
2018-11-30T03:52:45.601Z,1003.53
2018-11-30T03:53:11.715Z,1003.49
2018-11-30T03:53:37.828Z,1003.45
2018-11-30T03:54:03.926Z,1003.51
2018-11-30T03:54:30.034Z,1003.54
2018-11-30T03:54:56.170Z,1003.53
2018-11-30T03:55:22.293Z,1003.53
2018-11-30T03:55:48.400Z,1003.53
2018-11-30T03:56:14.535Z,1003.52
2018-11-30T03:56:40.672Z,1003.53
2018-11-30T03:57:06.778Z,1003.5
2018-11-30T03:57:32.877Z,1003.51
2018-11-30T03:57:58.987Z,1003.52
2018-11-30T03:58:25.093Z,1003.55
2018-11-30T03:58:52.181Z,1003.52
2018-11-30T03:59:18.290Z,1003.53
2018-11-30T03:59:44.394Z,1003.52
2018-11-30T04:00:10.503Z,1003.54
2018-11-30T04:00:36.642Z,1003.53
2018-11-30T04:01:02.832Z,1003.56
2018-11-30T04:01:28.956Z,1003.53
2018-11-30T04:01:55.087Z,1003.58
2018-11-30T04:02:21.251Z,1003.59
2018-11-30T04:02:47.392Z,1003.62
2018-11-30T04:03:13.556Z,1003.65
2018-11-30T04:03:39.665Z,1003.61
2018-11-30T04:04:05.771Z,1003.64
2018-11-30T04:04:31.873Z,1003.62
2018-11-30T04:04:57.981Z,1003.67
2018-11-30T04:05:24.208Z,1003.65
2018-11-30T04:05:50.277Z,1003.67
2018-11-30T04:06:16.397Z,1003.68
2018-11-30T04:06:42.522Z,1003.64
2018-11-30T04:07:08.663Z,1003.68
2018-11-30T04:07:34.767Z,1003.63
2018-11-30T04:08:00.870Z,1003.63
2018-11-30T04:08:26.974Z,1003.62
2018-11-30T04:08:53.116Z,1003.61
2018-11-30T04:09:19.215Z,1003.65
2018-11-30T04:09:45.325Z,1003.58
2018-11-30T04:10:11.469Z,1003.56
2018-11-30T04:10:37.632Z,1003.62
2018-11-30T04:11:03.769Z,1003.59
2018-11-30T04:11:29.876Z,1003.56
2018-11-30T04:11:55.976Z,1003.52
2018-11-30T04:12:22.086Z,1003.62
2018-11-30T04:12:48.224Z,1003.58
2018-11-30T04:13:14.355Z,1003.57
2018-11-30T04:13:40.463Z,1003.58
2018-11-30T04:14:06.573Z,1003.58
2018-11-30T04:14:32.671Z,1003.55
2018-11-30T04:14:58.807Z,1003.56
2018-11-30T04:15:24.916Z,1003.61
2018-11-30T04:15:51.051Z,1003.61
2018-11-30T04:16:17.216Z,1003.58
2018-11-30T04:16:43.317Z,1003.58
2018-11-30T04:17:09.492Z,1003.53
2018-11-30T04:17:35.608Z,1003.58
2018-11-30T04:18:01.718Z,1003.52
2018-11-30T04:18:27.846Z,1003.54
2018-11-30T04:18:53.955Z,1003.54
2018-11-30T04:19:20.092Z,1003.52
2018-11-30T04:19:46.223Z,1003.49
2018-11-30T04:20:12.388Z,1003.5
2018-11-30T04:20:38.523Z,1003.49
2018-11-30T04:21:04.628Z,1003.46
2018-11-30T04:21:30.735Z,1003.48
2018-11-30T04:21:56.870Z,1003.44
2018-11-30T04:22:23.006Z,1003.46
2018-11-30T04:22:49.146Z,1003.43
2018-11-30T04:23:15.277Z,1003.45
2018-11-30T04:23:41.572Z,1003.46
2018-11-30T04:24:07.709Z,1003.46
2018-11-30T04:24:33.810Z,1003.49
2018-11-30T04:24:59.947Z,1003.46
2018-11-30T04:25:26.093Z,1003.5
2018-11-30T04:25:52.207Z,1003.5
2018-11-30T04:26:18.338Z,1003.48
2018-11-30T04:26:44.468Z,1003.47
2018-11-30T04:27:10.573Z,1003.47
2018-11-30T04:27:36.682Z,1003.48
2018-11-30T04:28:02.786Z,1003.47
2018-11-30T04:28:28.896Z,1003.49
2018-11-30T04:28:55.000Z,1003.5
2018-11-30T04:29:21.101Z,1003.51
2018-11-30T04:29:47.239Z,1003.53
2018-11-30T04:30:13.363Z,1003.47
2018-11-30T04:30:39.503Z,1003.47
2018-11-30T04:31:05.614Z,1003.48
2018-11-30T04:31:31.746Z,1003.49
2018-11-30T04:31:58.846Z,1003.5
2018-11-30T04:32:24.949Z,1003.52
2018-11-30T04:32:51.049Z,1003.47
2018-11-30T04:33:17.154Z,1003.47
2018-11-30T04:33:43.479Z,1003.49
2018-11-30T04:34:09.629Z,1003.48
2018-11-30T04:34:35.741Z,1003.46
2018-11-30T04:35:01.843Z,1003.48
2018-11-30T04:35:27.955Z,1003.45
2018-11-30T04:35:54.093Z,1003.47
2018-11-30T04:36:20.197Z,1003.49
2018-11-30T04:36:46.337Z,1003.57
2018-11-30T04:37:12.443Z,1003.53
2018-11-30T04:37:39.923Z,1003.47
2018-11-30T04:38:06.072Z,1003.48
2018-11-30T04:38:32.180Z,1003.46
2018-11-30T04:38:58.318Z,1003.48
2018-11-30T04:39:25.466Z,1003.49
2018-11-30T04:39:51.591Z,1003.55
2018-11-30T04:40:17.705Z,1003.5
2018-11-30T04:40:43.818Z,1003.51
2018-11-30T04:41:09.943Z,1003.51
2018-11-30T04:41:36.051Z,1003.47
2018-11-30T04:42:02.158Z,1003.5
2018-11-30T04:42:28.307Z,1003.52
2018-11-30T04:42:54.465Z,1003.5
2018-11-30T04:43:20.591Z,1003.53
2018-11-30T04:43:46.743Z,1003.53
2018-11-30T04:44:12.871Z,1003.56
2018-11-30T04:44:38.982Z,1003.5
2018-11-30T04:45:05.093Z,1003.54
2018-11-30T04:45:31.225Z,1003.47
2018-11-30T04:45:57.337Z,1003.52
2018-11-30T04:46:23.471Z,1003.52
2018-11-30T04:46:49.572Z,1003.47
2018-11-30T04:47:15.685Z,1003.49
2018-11-30T04:47:41.821Z,1003.5
2018-11-30T04:48:07.951Z,1003.52
2018-11-30T04:48:34.113Z,1003.47
2018-11-30T04:49:00.247Z,1003.49
2018-11-30T04:49:26.360Z,1003.48
2018-11-30T04:49:52.492Z,1003.46
2018-11-30T04:50:18.603Z,1003.5
2018-11-30T04:50:44.762Z,1003.47
2018-11-30T04:51:10.894Z,1003.54
2018-11-30T04:51:37.030Z,1003.47
2018-11-30T04:52:03.137Z,1003.48
2018-11-30T04:52:29.246Z,1003.45
2018-11-30T04:52:55.389Z,1003.48
2018-11-30T04:53:21.515Z,1003.45
2018-11-30T04:53:47.613Z,1003.47
2018-11-30T04:54:13.719Z,1003.47
2018-11-30T04:54:39.861Z,1003.45
2018-11-30T04:55:05.961Z,1003.43
2018-11-30T04:55:32.101Z,1003.46
2018-11-30T04:55:58.205Z,1003.46
2018-11-30T04:56:24.312Z,1003.44
2018-11-30T04:56:50.416Z,1003.46
2018-11-30T04:57:16.521Z,1003.46
2018-11-30T04:57:42.617Z,1003.45
2018-11-30T04:58:08.790Z,1003.5
2018-11-30T04:58:34.892Z,1003.49
2018-11-30T04:59:00.995Z,1003.52
2018-11-30T04:59:27.164Z,1003.53
2018-11-30T04:59:53.297Z,1003.5
2018-11-30T05:00:19.435Z,1003.5
2018-11-30T05:00:45.542Z,1003.5
2018-11-30T05:01:11.651Z,1003.5
2018-11-30T05:01:37.755Z,1003.55
2018-11-30T05:02:03.865Z,1003.52
2018-11-30T05:02:29.970Z,1003.54
2018-11-30T05:02:56.081Z,1003.51
2018-11-30T05:03:22.242Z,1003.52
2018-11-30T05:03:48.348Z,1003.56
2018-11-30T05:04:14.464Z,1003.56
2018-11-30T05:04:40.595Z,1003.53
2018-11-30T05:05:06.703Z,1003.55
2018-11-30T05:05:32.839Z,1003.57
2018-11-30T05:05:58.975Z,1003.6
2018-11-30T05:06:25.078Z,1003.57
2018-11-30T05:06:51.177Z,1003.56
2018-11-30T05:07:17.351Z,1003.57
2018-11-30T05:07:43.489Z,1003.56
2018-11-30T05:08:09.619Z,1003.58
2018-11-30T05:08:35.727Z,1003.58
2018-11-30T05:09:01.833Z,1003.56
2018-11-30T05:09:27.946Z,1003.56
2018-11-30T05:09:54.078Z,1003.58
2018-11-30T05:10:20.214Z,1003.56
2018-11-30T05:10:46.332Z,1003.59
2018-11-30T05:11:12.465Z,1003.54
2018-11-30T05:11:38.596Z,1003.55
2018-11-30T05:12:04.706Z,1003.58
2018-11-30T05:12:30.811Z,1003.57
2018-11-30T05:12:56.914Z,1003.55
2018-11-30T05:13:23.020Z,1003.58
2018-11-30T05:13:49.119Z,1003.55
2018-11-30T05:14:15.232Z,1003.58
2018-11-30T05:14:41.330Z,1003.58
2018-11-30T05:15:07.439Z,1003.57
2018-11-30T05:15:33.552Z,1003.61
2018-11-30T05:15:59.688Z,1003.6
2018-11-30T05:16:25.790Z,1003.59
2018-11-30T05:16:51.925Z,1003.59
2018-11-30T05:17:18.035Z,1003.58